<?xml version="1.0" encoding="UTF-8" standalone="no" ?>
<gpx xmlns="http://www.topografix.com/GPX/1/1" xmlns:xsi="http://www.w3.org/2001/XMLSchema-instance" xsi:schemaLocation="http://www.topografix.com/GPX/1/1 http://www.topografix.com/GPX/1/1/gpx.xsd" version="1.1" creator="VisuGPX - https://www.visugpx.com">
  <metadata>
    <name>2021-04-03 Brison-Croix de Meyrieux-la Chambotte</name>
  </metadata>
  <trk>
    <name><![CDATA[2021-04-03 15:46:03]]></name>
    <trkseg>
      <trkpt lat="45.75688" lon="5.87489">
        <ele>236.86</ele>
        <time>2021-04-03T07:17:08Z</time>
      </trkpt>
      <trkpt lat="45.75671" lon="5.87574">
        <ele>239.39</ele>
        <time>2021-04-03T07:23:24Z</time>
      </trkpt>
      <trkpt lat="45.75677" lon="5.87684">
        <ele>250.88</ele>
        <time>2021-04-03T07:25:05Z</time>
      </trkpt>
      <trkpt lat="45.75668" lon="5.87807">
        <ele>258.35</ele>
        <time>2021-04-03T07:26:37Z</time>
      </trkpt>
      <trkpt lat="45.75633" lon="5.87923">
        <ele>266.67</ele>
        <time>2021-04-03T07:28:10Z</time>
      </trkpt>
      <trkpt lat="45.75569" lon="5.88008">
        <ele>272.82</ele>
        <time>2021-04-03T07:29:40Z</time>
      </trkpt>
      <trkpt lat="45.75488" lon="5.8807">
        <ele>277.92</ele>
        <time>2021-04-03T07:31:16Z</time>
      </trkpt>
      <trkpt lat="45.75382" lon="5.88143">
        <ele>282.47</ele>
        <time>2021-04-03T07:33:05Z</time>
      </trkpt>
      <trkpt lat="45.75331" lon="5.88173">
        <ele>286.62</ele>
        <time>2021-04-03T07:35:07Z</time>
      </trkpt>
      <trkpt lat="45.75248" lon="5.88214">
        <ele>289.33</ele>
        <time>2021-04-03T07:37:03Z</time>
      </trkpt>
      <trkpt lat="45.75235" lon="5.88272">
        <ele>320.22</ele>
        <time>2021-04-03T07:40:03Z</time>
      </trkpt>
      <trkpt lat="45.75308" lon="5.88263">
        <ele>346.17</ele>
        <time>2021-04-03T07:43:50Z</time>
      </trkpt>
      <trkpt lat="45.75281" lon="5.88311">
        <ele>371.33</ele>
        <time>2021-04-03T07:47:11Z</time>
      </trkpt>
      <trkpt lat="45.752" lon="5.88354">
        <ele>382.87</ele>
        <time>2021-04-03T07:49:21Z</time>
      </trkpt>
      <trkpt lat="45.75159" lon="5.88374">
        <ele>389.37</ele>
        <time>2021-04-03T07:54:08Z</time>
      </trkpt>
      <trkpt lat="45.75085" lon="5.88418">
        <ele>398.41</ele>
        <time>2021-04-03T07:55:52Z</time>
      </trkpt>
      <trkpt lat="45.75044" lon="5.88474">
        <ele>422.86</ele>
        <time>2021-04-03T07:58:20Z</time>
      </trkpt>
      <trkpt lat="45.75068" lon="5.88582">
        <ele>435.33</ele>
        <time>2021-04-03T08:00:13Z</time>
      </trkpt>
      <trkpt lat="45.75088" lon="5.88637">
        <ele>449.41</ele>
        <time>2021-04-03T08:02:34Z</time>
      </trkpt>
      <trkpt lat="45.75035" lon="5.8872">
        <ele>476.95</ele>
        <time>2021-04-03T08:05:26Z</time>
      </trkpt>
      <trkpt lat="45.74983" lon="5.8882">
        <ele>502.75</ele>
        <time>2021-04-03T08:08:10Z</time>
      </trkpt>
      <trkpt lat="45.74947" lon="5.88895">
        <ele>512.74</ele>
        <time>2021-04-03T08:11:31Z</time>
      </trkpt>
      <trkpt lat="45.74957" lon="5.88947">
        <ele>523.21</ele>
        <time>2021-04-03T08:13:26Z</time>
      </trkpt>
      <trkpt lat="45.74921" lon="5.89062">
        <ele>533.51</ele>
        <time>2021-04-03T08:15:09Z</time>
      </trkpt>
      <trkpt lat="45.74851" lon="5.89124">
        <ele>542.23</ele>
        <time>2021-04-03T08:16:57Z</time>
      </trkpt>
      <trkpt lat="45.74908" lon="5.89146">
        <ele>550.49</ele>
        <time>2021-04-03T08:21:13Z</time>
      </trkpt>
      <trkpt lat="45.74993" lon="5.89098">
        <ele>560.53</ele>
        <time>2021-04-03T08:24:27Z</time>
      </trkpt>
      <trkpt lat="45.75086" lon="5.89041">
        <ele>571.79</ele>
        <time>2021-04-03T08:26:28Z</time>
      </trkpt>
      <trkpt lat="45.75106" lon="5.89048">
        <ele>583.07</ele>
        <time>2021-04-03T08:28:21Z</time>
      </trkpt>
      <trkpt lat="45.75039" lon="5.89138">
        <ele>593.72</ele>
        <time>2021-04-03T08:30:12Z</time>
      </trkpt>
      <trkpt lat="45.74952" lon="5.89219">
        <ele>610.34</ele>
        <time>2021-04-03T08:32:20Z</time>
      </trkpt>
      <trkpt lat="45.74861" lon="5.89277">
        <ele>626.25</ele>
        <time>2021-04-03T08:34:31Z</time>
      </trkpt>
      <trkpt lat="45.74824" lon="5.89395">
        <ele>641.18</ele>
        <time>2021-04-03T08:36:51Z</time>
      </trkpt>
      <trkpt lat="45.74781" lon="5.89482">
        <ele>652.18</ele>
        <time>2021-04-03T08:39:26Z</time>
      </trkpt>
      <trkpt lat="45.74725" lon="5.89586">
        <ele>668.31</ele>
        <time>2021-04-03T08:42:03Z</time>
      </trkpt>
      <trkpt lat="45.74663" lon="5.89673">
        <ele>682.21</ele>
        <time>2021-04-03T08:44:21Z</time>
      </trkpt>
      <trkpt lat="45.74601" lon="5.89779">
        <ele>695.31</ele>
        <time>2021-04-03T08:46:27Z</time>
      </trkpt>
      <trkpt lat="45.74541" lon="5.89887">
        <ele>710.61</ele>
        <time>2021-04-03T08:48:43Z</time>
      </trkpt>
      <trkpt lat="45.74504" lon="5.90014">
        <ele>719.7</ele>
        <time>2021-04-03T08:50:55Z</time>
      </trkpt>
      <trkpt lat="45.74482" lon="5.9008">
        <ele>724.82</ele>
        <time>2021-04-03T08:54:51Z</time>
      </trkpt>
      <trkpt lat="45.74426" lon="5.90224">
        <ele>725.58</ele>
        <time>2021-04-03T08:57:14Z</time>
      </trkpt>
      <trkpt lat="45.74441" lon="5.90333">
        <ele>742.65</ele>
        <time>2021-04-03T09:00:46Z</time>
      </trkpt>
      <trkpt lat="45.74452" lon="5.9045">
        <ele>777.61</ele>
        <time>2021-04-03T09:04:02Z</time>
      </trkpt>
      <trkpt lat="45.74501" lon="5.90514">
        <ele>800.25</ele>
        <time>2021-04-03T09:12:58Z</time>
      </trkpt>
      <trkpt lat="45.74558" lon="5.90588">
        <ele>814.71</ele>
        <time>2021-04-03T09:17:36Z</time>
      </trkpt>
      <trkpt lat="45.74588" lon="5.90578">
        <ele>819.87</ele>
        <time>2021-04-03T09:24:15Z</time>
      </trkpt>
      <trkpt lat="45.74583" lon="5.90461">
        <ele>845.34</ele>
        <time>2021-04-03T09:27:03Z</time>
      </trkpt>
      <trkpt lat="45.74596" lon="5.90368">
        <ele>855.74</ele>
        <time>2021-04-03T09:33:15Z</time>
      </trkpt>
      <trkpt lat="45.74663" lon="5.90252">
        <ele>858.92</ele>
        <time>2021-04-03T09:36:12Z</time>
      </trkpt>
      <trkpt lat="45.74721" lon="5.90126">
        <ele>858.89</ele>
        <time>2021-04-03T09:39:00Z</time>
      </trkpt>
      <trkpt lat="45.74765" lon="5.89979">
        <ele>861.3</ele>
        <time>2021-04-03T09:42:12Z</time>
      </trkpt>
      <trkpt lat="45.74816" lon="5.89908">
        <ele>849.3</ele>
        <time>2021-04-03T09:46:08Z</time>
      </trkpt>
      <trkpt lat="45.74906" lon="5.89806">
        <ele>841.41</ele>
        <time>2021-04-03T09:48:45Z</time>
      </trkpt>
      <trkpt lat="45.7496" lon="5.8979">
        <ele>852</ele>
        <time>2021-04-03T09:55:06Z</time>
      </trkpt>
      <trkpt lat="45.75025" lon="5.89671">
        <ele>844.81</ele>
        <time>2021-04-03T09:57:51Z</time>
      </trkpt>
      <trkpt lat="45.75116" lon="5.89627">
        <ele>851.06</ele>
        <time>2021-04-03T10:00:12Z</time>
      </trkpt>
      <trkpt lat="45.75217" lon="5.89492">
        <ele>841.38</ele>
        <time>2021-04-03T10:02:43Z</time>
      </trkpt>
      <trkpt lat="45.75319" lon="5.89395">
        <ele>830.13</ele>
        <time>2021-04-03T10:05:08Z</time>
      </trkpt>
      <trkpt lat="45.75461" lon="5.89303">
        <ele>804.48</ele>
        <time>2021-04-03T10:07:41Z</time>
      </trkpt>
      <trkpt lat="45.75483" lon="5.89152">
        <ele>785.22</ele>
        <time>2021-04-03T10:10:14Z</time>
      </trkpt>
      <trkpt lat="45.75578" lon="5.8904">
        <ele>783.31</ele>
        <time>2021-04-03T10:12:40Z</time>
      </trkpt>
      <trkpt lat="45.756" lon="5.89125">
        <ele>774.83</ele>
        <time>2021-04-03T10:15:16Z</time>
      </trkpt>
      <trkpt lat="45.75689" lon="5.89041">
        <ele>785.89</ele>
        <time>2021-04-03T10:18:03Z</time>
      </trkpt>
      <trkpt lat="45.75745" lon="5.89037">
        <ele>807.61</ele>
        <time>2021-04-03T10:24:18Z</time>
      </trkpt>
      <trkpt lat="45.75872" lon="5.89003">
        <ele>802.14</ele>
        <time>2021-04-03T10:26:37Z</time>
      </trkpt>
      <trkpt lat="45.7598" lon="5.88914">
        <ele>816.99</ele>
        <time>2021-04-03T10:28:50Z</time>
      </trkpt>
      <trkpt lat="45.76112" lon="5.88858">
        <ele>813.58</ele>
        <time>2021-04-03T10:30:51Z</time>
      </trkpt>
      <trkpt lat="45.76219" lon="5.88828">
        <ele>821.22</ele>
        <time>2021-04-03T10:33:09Z</time>
      </trkpt>
      <trkpt lat="45.76315" lon="5.88726">
        <ele>832.96</ele>
        <time>2021-04-03T10:35:23Z</time>
      </trkpt>
      <trkpt lat="45.76368" lon="5.88622">
        <ele>840.89</ele>
        <time>2021-04-03T10:37:15Z</time>
      </trkpt>
      <trkpt lat="45.76463" lon="5.88588">
        <ele>832.08</ele>
        <time>2021-04-03T10:39:32Z</time>
      </trkpt>
      <trkpt lat="45.76572" lon="5.88562">
        <ele>819.37</ele>
        <time>2021-04-03T10:41:41Z</time>
      </trkpt>
      <trkpt lat="45.76695" lon="5.88547">
        <ele>793.5</ele>
        <time>2021-04-03T10:43:50Z</time>
      </trkpt>
      <trkpt lat="45.76742" lon="5.8841">
        <ele>790.7</ele>
        <time>2021-04-03T10:45:49Z</time>
      </trkpt>
      <trkpt lat="45.76792" lon="5.8826">
        <ele>783.36</ele>
        <time>2021-04-03T10:47:46Z</time>
      </trkpt>
      <trkpt lat="45.76826" lon="5.88104">
        <ele>772.31</ele>
        <time>2021-04-03T10:49:37Z</time>
      </trkpt>
      <trkpt lat="45.76853" lon="5.87999">
        <ele>753.12</ele>
        <time>2021-04-03T10:53:34Z</time>
      </trkpt>
      <trkpt lat="45.76862" lon="5.8801">
        <ele>752.35</ele>
        <time>2021-04-03T11:10:20Z</time>
      </trkpt>
      <trkpt lat="45.76862" lon="5.88017">
        <ele>753.65</ele>
        <time>2021-04-03T11:20:57Z</time>
      </trkpt>
      <trkpt lat="45.76857" lon="5.88013">
        <ele>753.46</ele>
        <time>2021-04-03T11:24:33Z</time>
      </trkpt>
      <trkpt lat="45.76856" lon="5.88008">
        <ele>753.68</ele>
        <time>2021-04-03T11:32:52Z</time>
      </trkpt>
      <trkpt lat="45.76872" lon="5.88025">
        <ele>758.59</ele>
        <time>2021-04-03T11:43:41Z</time>
      </trkpt>
      <trkpt lat="45.76995" lon="5.88002">
        <ele>749.92</ele>
        <time>2021-04-03T11:46:21Z</time>
      </trkpt>
      <trkpt lat="45.77093" lon="5.88017">
        <ele>733.37</ele>
        <time>2021-04-03T11:48:36Z</time>
      </trkpt>
      <trkpt lat="45.77187" lon="5.87933">
        <ele>724.5</ele>
        <time>2021-04-03T11:50:06Z</time>
      </trkpt>
      <trkpt lat="45.77268" lon="5.87919">
        <ele>711.58</ele>
        <time>2021-04-03T11:51:32Z</time>
      </trkpt>
      <trkpt lat="45.77354" lon="5.87923">
        <ele>705.62</ele>
        <time>2021-04-03T11:53:03Z</time>
      </trkpt>
      <trkpt lat="45.77404" lon="5.87785">
        <ele>699.84</ele>
        <time>2021-04-03T11:54:32Z</time>
      </trkpt>
      <trkpt lat="45.77437" lon="5.87659">
        <ele>693.97</ele>
        <time>2021-04-03T11:55:52Z</time>
      </trkpt>
      <trkpt lat="45.77482" lon="5.87552">
        <ele>692.15</ele>
        <time>2021-04-03T11:57:08Z</time>
      </trkpt>
      <trkpt lat="45.77526" lon="5.87436">
        <ele>696.57</ele>
        <time>2021-04-03T11:58:32Z</time>
      </trkpt>
      <trkpt lat="45.77466" lon="5.87496">
        <ele>705.77</ele>
        <time>2021-04-03T12:00:27Z</time>
      </trkpt>
      <trkpt lat="45.77422" lon="5.87465">
        <ele>717.1</ele>
        <time>2021-04-03T12:02:03Z</time>
      </trkpt>
      <trkpt lat="45.77373" lon="5.87484">
        <ele>731.94</ele>
        <time>2021-04-03T12:04:01Z</time>
      </trkpt>
      <trkpt lat="45.77388" lon="5.87381">
        <ele>736.72</ele>
        <time>2021-04-03T12:05:41Z</time>
      </trkpt>
      <trkpt lat="45.77388" lon="5.87407">
        <ele>734.45</ele>
        <time>2021-04-03T12:13:42Z</time>
      </trkpt>
      <trkpt lat="45.77387" lon="5.87499">
        <ele>722.41</ele>
        <time>2021-04-03T12:15:38Z</time>
      </trkpt>
      <trkpt lat="45.77443" lon="5.87446">
        <ele>714.54</ele>
        <time>2021-04-03T12:19:03Z</time>
      </trkpt>
      <trkpt lat="45.77491" lon="5.87466">
        <ele>701.71</ele>
        <time>2021-04-03T12:20:34Z</time>
      </trkpt>
      <trkpt lat="45.77552" lon="5.87366">
        <ele>690.85</ele>
        <time>2021-04-03T12:22:12Z</time>
      </trkpt>
      <trkpt lat="45.77629" lon="5.87364">
        <ele>677.11</ele>
        <time>2021-04-03T12:23:38Z</time>
      </trkpt>
      <trkpt lat="45.7766" lon="5.8749">
        <ele>664.95</ele>
        <time>2021-04-03T12:24:58Z</time>
      </trkpt>
      <trkpt lat="45.77695" lon="5.87483">
        <ele>653.59</ele>
        <time>2021-04-03T12:26:28Z</time>
      </trkpt>
      <trkpt lat="45.77708" lon="5.87359">
        <ele>647.32</ele>
        <time>2021-04-03T12:27:45Z</time>
      </trkpt>
      <trkpt lat="45.77628" lon="5.87249">
        <ele>637.78</ele>
        <time>2021-04-03T12:29:32Z</time>
      </trkpt>
      <trkpt lat="45.77537" lon="5.87219">
        <ele>630.61</ele>
        <time>2021-04-03T12:30:46Z</time>
      </trkpt>
      <trkpt lat="45.776" lon="5.87239">
        <ele>621.8</ele>
        <time>2021-04-03T12:32:10Z</time>
      </trkpt>
      <trkpt lat="45.77681" lon="5.87232">
        <ele>617.1</ele>
        <time>2021-04-03T12:34:36Z</time>
      </trkpt>
      <trkpt lat="45.77784" lon="5.87168">
        <ele>607.41</ele>
        <time>2021-04-03T12:36:16Z</time>
      </trkpt>
      <trkpt lat="45.77896" lon="5.87105">
        <ele>595.8</ele>
        <time>2021-04-03T12:37:57Z</time>
      </trkpt>
      <trkpt lat="45.77969" lon="5.87052">
        <ele>587.19</ele>
        <time>2021-04-03T12:40:14Z</time>
      </trkpt>
      <trkpt lat="45.77889" lon="5.87065">
        <ele>575.27</ele>
        <time>2021-04-03T12:42:41Z</time>
      </trkpt>
      <trkpt lat="45.77781" lon="5.87086">
        <ele>558.53</ele>
        <time>2021-04-03T12:44:16Z</time>
      </trkpt>
      <trkpt lat="45.77697" lon="5.87099">
        <ele>546.83</ele>
        <time>2021-04-03T12:46:39Z</time>
      </trkpt>
      <trkpt lat="45.7758" lon="5.87067">
        <ele>533.77</ele>
        <time>2021-04-03T12:48:22Z</time>
      </trkpt>
      <trkpt lat="45.77468" lon="5.87053">
        <ele>525.99</ele>
        <time>2021-04-03T12:49:56Z</time>
      </trkpt>
      <trkpt lat="45.77349" lon="5.8707">
        <ele>508.19</ele>
        <time>2021-04-03T12:51:40Z</time>
      </trkpt>
      <trkpt lat="45.77267" lon="5.87082">
        <ele>496.68</ele>
        <time>2021-04-03T12:53:46Z</time>
      </trkpt>
      <trkpt lat="45.77178" lon="5.87132">
        <ele>481.52</ele>
        <time>2021-04-03T12:55:28Z</time>
      </trkpt>
      <trkpt lat="45.77093" lon="5.87183">
        <ele>463.65</ele>
        <time>2021-04-03T12:56:57Z</time>
      </trkpt>
      <trkpt lat="45.77003" lon="5.87253">
        <ele>450.45</ele>
        <time>2021-04-03T12:58:29Z</time>
      </trkpt>
      <trkpt lat="45.76956" lon="5.87262">
        <ele>435.58</ele>
        <time>2021-04-03T13:00:39Z</time>
      </trkpt>
      <trkpt lat="45.76985" lon="5.87151">
        <ele>423.51</ele>
        <time>2021-04-03T13:02:20Z</time>
      </trkpt>
      <trkpt lat="45.76912" lon="5.87213">
        <ele>407.96</ele>
        <time>2021-04-03T13:03:56Z</time>
      </trkpt>
      <trkpt lat="45.76812" lon="5.87233">
        <ele>389.99</ele>
        <time>2021-04-03T13:05:38Z</time>
      </trkpt>
      <trkpt lat="45.76701" lon="5.87262">
        <ele>370.02</ele>
        <time>2021-04-03T13:07:31Z</time>
      </trkpt>
      <trkpt lat="45.76588" lon="5.87305">
        <ele>350.88</ele>
        <time>2021-04-03T13:10:03Z</time>
      </trkpt>
      <trkpt lat="45.76451" lon="5.87313">
        <ele>328.76</ele>
        <time>2021-04-03T13:12:28Z</time>
      </trkpt>
      <trkpt lat="45.7633" lon="5.87275">
        <ele>300.32</ele>
        <time>2021-04-03T13:15:08Z</time>
      </trkpt>
      <trkpt lat="45.76287" lon="5.87271">
        <ele>299.25</ele>
        <time>2021-04-03T13:18:29Z</time>
      </trkpt>
      <trkpt lat="45.76199" lon="5.87232">
        <ele>313.18</ele>
        <time>2021-04-03T13:21:12Z</time>
      </trkpt>
      <trkpt lat="45.76119" lon="5.87165">
        <ele>312.05</ele>
        <time>2021-04-03T13:23:19Z</time>
      </trkpt>
      <trkpt lat="45.7601" lon="5.87178">
        <ele>320.66</ele>
        <time>2021-04-03T13:25:36Z</time>
      </trkpt>
      <trkpt lat="45.75886" lon="5.87205">
        <ele>299.23</ele>
        <time>2021-04-03T13:28:05Z</time>
      </trkpt>
      <trkpt lat="45.75829" lon="5.87301">
        <ele>287.92</ele>
        <time>2021-04-03T13:30:06Z</time>
      </trkpt>
      <trkpt lat="45.75807" lon="5.8742">
        <ele>280.21</ele>
        <time>2021-04-03T13:31:54Z</time>
      </trkpt>
      <trkpt lat="45.75787" lon="5.87539">
        <ele>269.6</ele>
        <time>2021-04-03T13:34:11Z</time>
      </trkpt>
      <trkpt lat="45.75729" lon="5.87645">
        <ele>263.96</ele>
        <time>2021-04-03T13:35:46Z</time>
      </trkpt>
      <trkpt lat="45.75673" lon="5.8766">
        <ele>257.3</ele>
        <time>2021-04-03T13:40:41Z</time>
      </trkpt>
      <trkpt lat="45.75663" lon="5.8756">
        <ele>248.55</ele>
        <time>2021-04-03T13:42:55Z</time>
      </trkpt>
      <trkpt lat="45.75684" lon="5.87477">
        <ele>244.32</ele>
        <time>2021-04-03T13:46:03Z</time>
      </trkpt>
    </trkseg>
  </trk>
</gpx>